sensor_id;sensor_type;location;lat;lon;timestamp;pressure;altitude;pressure_sealevel;temperature;humidity
38163;BME280;23977;53.078;18.248;2023-04-24T00:01:48;100247.38;;;12.59;100.00
38163;BME280;23977;53.078;18.248;2023-04-24T00:04:14;100316.28;;;12.85;100.00
38163;BME280;23977;53.078;18.248;2023-04-24T00:06:42;100219.13;;;12.50;100.00
38163;BME280;23977;53.078;18.248;2023-04-24T00:09:09;100286.59;;;13.10;100.00
38163;BME280;23977;53.078;18.248;2023-04-24T00:11:36;100274.50;;;12.92;100.00
38163;BME280;23977;53.078;18.248;2023-04-24T00:14:02;100212.88;;;12.28;100.00
38163;BME280;23977;53.078;18.248;2023-04-24T00:16:28;100218.22;;;12.28;100.00
38163;BME280;23977;53.078;18.248;2023-04-24T00:18:54;100263.00;;;12.62;100.00
38163;BME280;23977;53.078;18.248;2023-04-24T00:21:20;100280.69;;;12.63;100.00
38163;BME280;23977;53.078;18.248;2023-04-24T00:23:47;100246.91;;;12.40;100.00
38163;BME280;23977;53.078;18.248;2023-04-24T00:26:13;100272.84;;;12.62;100.00
38163;BME280;23977;53.078;18.248;2023-04-24T00:28:39;100268.13;;;12.78;100.00
38163;BME280;23977;53.078;18.248;2023-04-24T00:31:04;100225.47;;;12.49;100.00
38163;BME280;23977;53.078;18.248;2023-04-24T00:33:30;100220.28;;;12.62;100.00
38163;BME280;23977;53.078;18.248;2023-04-24T00:35:56;100238.63;;;12.50;100.00
38163;BME280;23977;53.078;18.248;2023-04-24T00:38:22;100261.97;;;12.78;100.00
38163;BME280;23977;53.078;18.248;2023-04-24T00:40:48;100251.13;;;12.65;100.00
38163;BME280;23977;53.078;18.248;2023-04-24T00:43:16;100179.31;;;12.18;100.00
38163;BME280;23977;53.078;18.248;2023-04-24T00:45:41;100256.47;;;12.65;100.00
38163;BME280;23977;53.078;18.248;2023-04-24T00:48:07;100214.78;;;12.49;100.00
38163;BME280;23977;53.078;18.248;2023-04-24T00:50:35;100157.44;;;12.08;100.00
38163;BME280;23977;53.078;18.248;2023-04-24T00:53:01;100249.84;;;12.61;100.00
38163;BME280;23977;53.078;18.248;2023-04-24T00:55:27;100244.91;;;12.57;100.00
38163;BME280;23977;53.078;18.248;2023-04-24T00:57:53;100188.69;;;12.14;100.00
38163;BME280;23977;53.078;18.248;2023-04-24T01:00:18;100244.91;;;12.57;100.00
38163;BME280;23977;53.078;18.248;2023-04-24T01:02:44;100203.66;;;12.45;100.00
38163;BME280;23977;53.078;18.248;2023-04-24T01:05:14;100259.69;;;12.75;100.00
38163;BME280;23977;53.078;18.248;2023-04-24T01:07:41;100226.03;;;12.44;100.00
38163;BME280;23977;53.078;18.248;2023-04-24T01:10:09;100192.66;;;12.18;100.00
38163;BME280;23977;53.078;18.248;2023-04-24T01:12:35;100164.78;;;12.06;100.00
38163;BME280;23977;53.078;18.248;2023-04-24T01:15:01;100225.19;;;12.44;100.00
38163;BME280;23977;53.078;18.248;2023-04-24T01:17:38;100193.94;;;12.23;100.00
38163;BME280;23977;53.078;18.248;2023-04-24T01:20:07;100214.44;;;12.37;100.00
38163;BME280;23977;53.078;18.248;2023-04-24T01:22:34;100153.19;;;11.99;100.00
38163;BME280;23977;53.078;18.248;2023-04-24T01:25:03;100238.41;;;12.67;100.00
38163;BME280;23977;53.078;18.248;2023-04-24T01:27:30;100221.88;;;12.56;100.00
38163;BME280;23977;53.078;18.248;2023-04-24T01:29:56;99993.25;;;10.95;100.00
38163;BME280;23977;53.078;18.248;2023-04-24T01:32:24;100171.31;;;12.18;100.00
38163;BME280;23977;53.078;18.248;2023-04-24T01:34:50;99952.94;;;10.83;100.00
38163;BME280;23977;53.078;18.248;2023-04-24T01:37:17;100233.38;;;12.93;100.00
38163;BME280;23977;53.078;18.248;2023-04-24T01:39:47;99907.22;;;10.64;100.00
38163;BME280;23977;53.078;18.248;2023-04-24T01:42:25;99973.31;;;11.35;100.00
38163;BME280;23977;53.078;18.248;2023-04-24T01:44:57;100238.75;;;12.78;100.00
38163;BME280;23977;53.078;18.248;2023-04-24T01:47:33;99979.00;;;11.02;100.00
38163;BME280;23977;53.078;18.248;2023-04-24T01:49:59;100183.19;;;12.16;100.00
38163;BME280;23977;53.078;18.248;2023-04-24T01:52:29;99947.75;;;10.66;100.00
38163;BME280;23977;53.078;18.248;2023-04-24T01:54:59;99989.44;;;10.89;100.00
38163;BME280;23977;53.078;18.248;2023-04-24T01:57:26;99994.41;;;10.92;100.00
38163;BME280;23977;53.078;18.248;2023-04-24T02:00:02;100083.00;;;11.54;100.00
38163;BME280;23977;53.078;18.248;2023-04-24T02:02:35;100218.47;;;12.63;100.00
38163;BME280;23977;53.078;18.248;2023-04-24T02:05:06;100222.59;;;12.50;100.00
38163;BME280;23977;53.078;18.248;2023-04-24T02:07:42;99989.97;;;11.07;100.00
38163;BME280;23977;53.078;18.248;2023-04-24T02:10:17;100227.94;;;12.50;100.00
38163;BME280;23977;53.078;18.248;2023-04-24T02:12:52;99829.31;;;9.79;100.00
38163;BME280;23977;53.078;18.248;2023-04-24T02:15:23;99873.88;;;10.15;100.00
38163;BME280;23977;53.078;18.248;2023-04-24T02:17:56;100232.66;;;12.33;100.00
38163;BME280;23977;53.078;18.248;2023-04-24T02:20:28;99780.13;;;9.60;100.00
38163;BME280;23977;53.078;18.248;2023-04-24T02:22:57;100216.38;;;12.43;100.00
38163;BME280;23977;53.078;18.248;2023-04-24T02:25:27;100229.44;;;12.38;100.00
38163;BME280;23977;53.078;18.248;2023-04-24T02:28:01;99833.53;;;9.89;100.00
38163;BME280;23977;53.078;18.248;2023-04-24T02:30:39;100026.31;;;11.15;100.00
38163;BME280;23977;53.078;18.248;2023-04-24T02:33:05;100021.34;;;11.12;100.00
38163;BME280;23977;53.078;18.248;2023-04-24T02:35:34;100200.56;;;12.27;100.00
38163;BME280;23977;53.078;18.248;2023-04-24T02:38:07;100208.38;;;12.28;100.00
38163;BME280;23977;53.078;18.248;2023-04-24T02:40:44;99792.41;;;9.61;100.00
38163;BME280;23977;53.078;18.248;2023-04-24T02:43:14;100056.00;;;11.27;100.00
38163;BME280;23977;53.078;18.248;2023-04-24T02:45:45;99876.59;;;10.07;100.00
38163;BME280;23977;53.078;18.248;2023-04-24T02:48:18;99969.75;;;10.60;100.00
38163;BME280;23977;53.078;18.248;2023-04-24T02:50:49;99875.69;;;10.15;100.00
38163;BME280;23977;53.078;18.248;2023-04-24T02:53:19;99818.69;;;9.79;100.00
38163;BME280;23977;53.078;18.248;2023-04-24T02:55:56;99831.91;;;9.88;100.00
38163;BME280;23977;53.078;18.248;2023-04-24T02:58:28;100132.31;;;11.88;100.00
38163;BME280;23977;53.078;18.248;2023-04-24T03:00:54;99853.97;;;10.11;100.00
38163;BME280;23977;53.078;18.248;2023-04-24T03:03:29;99963.59;;;10.83;100.00
38163;BME280;23977;53.078;18.248;2023-04-24T03:05:59;100061.78;;;11.45;100.00
38163;BME280;23977;53.078;18.248;2023-04-24T03:08:32;100007.66;;;11.15;100.00
38163;BME280;23977;53.078;18.248;2023-04-24T03:11:01;100193.00;;;12.30;100.00
38163;BME280;23977;53.078;18.248;2023-04-24T03:13:28;100177.53;;;12.26;100.00
38163;BME280;23977;53.078;18.248;2023-04-24T03:16:00;99936.03;;;10.76;100.00
38163;BME280;23977;53.078;18.248;2023-04-24T03:18:41;99916.19;;;10.63;100.00
38163;BME280;23977;53.078;18.248;2023-04-24T03:21:10;100179.75;;;12.37;100.00
38163;BME280;23977;53.078;18.248;2023-04-24T03:23:46;99755.69;;;9.65;100.00
38163;BME280;23977;53.078;18.248;2023-04-24T03:26:16;99863.94;;;10.32;100.00
38163;BME280;23977;53.078;18.248;2023-04-24T03:28:53;99951.72;;;10.85;100.00
38163;BME280;23977;53.078;18.248;2023-04-24T03:31:25;100195.56;;;12.53;100.00
38163;BME280;23977;53.078;18.248;2023-04-24T03:33:56;99861.69;;;10.21;100.00
38163;BME280;23977;53.078;18.248;2023-04-24T03:36:26;100192.63;;;12.48;100.00
38163;BME280;23977;53.078;18.248;2023-04-24T03:38:59;99983.59;;;11.08;100.00
38163;BME280;23977;53.078;18.248;2023-04-24T03:41:32;99871.75;;;10.49;100.00
38163;BME280;23977;53.078;18.248;2023-04-24T03:44:00;99946.22;;;10.87;100.00
38163;BME280;23977;53.078;18.248;2023-04-24T03:46:29;99940.63;;;10.82;100.00
38163;BME280;23977;53.078;18.248;2023-04-24T03:48:59;100091.66;;;11.85;100.00
38163;BME280;23977;53.078;18.248;2023-04-24T03:51:29;99827.50;;;10.18;100.00
38163;BME280;23977;53.078;18.248;2023-04-24T03:54:01;99794.94;;;10.01;100.00
38163;BME280;23977;53.078;18.248;2023-04-24T03:56:27;99824.56;;;10.13;100.00
38163;BME280;23977;53.078;18.248;2023-04-24T03:59:03;100201.72;;;12.54;100.00
38163;BME280;23977;53.078;18.248;2023-04-24T04:01:47;99958.47;;;10.96;100.00
38163;BME280;23977;53.078;18.248;2023-04-24T04:04:18;99957.72;;;11.02;100.00
38163;BME280;23977;53.078;18.248;2023-04-24T04:06:53;100190.09;;;12.62;100.00
38163;BME280;23977;53.078;18.248;2023-04-24T04:09:19;99944.69;;;11.07;100.00
38163;BME280;23977;53.078;18.248;2023-04-24T04:11:48;100187.16;;;12.71;100.00
38163;BME280;23977;53.078;18.248;2023-04-24T04:14:18;99788.53;;;10.25;100.00
38163;BME280;23977;53.078;18.248;2023-04-24T04:16:53;100169.66;;;12.90;100.00
38163;BME280;23977;53.078;18.248;2023-04-24T04:19:22;100168.03;;;12.89;100.00
38163;BME280;23977;53.078;18.248;2023-04-24T04:21:56;100186.19;;;13.16;100.00
38163;BME280;23977;53.078;18.248;2023-04-24T04:24:26;100172.47;;;13.25;100.00
38163;BME280;23977;53.078;18.248;2023-04-24T04:26:55;100180.72;;;13.30;100.00
38163;BME280;23977;53.078;18.248;2023-04-24T04:29:32;100193.47;;;13.28;100.00
38163;BME280;23977;53.078;18.248;2023-04-24T04:32:05;99864.44;;;11.10;100.00
38163;BME280;23977;53.078;18.248;2023-04-24T04:34:40;100179.41;;;13.20;100.00
38163;BME280;23977;53.078;18.248;2023-04-24T04:37:12;100182.34;;;13.46;100.00
38163;BME280;23977;53.078;18.248;2023-04-24T04:39:51;100216.53;;;13.51;100.00
38163;BME280;23977;53.078;18.248;2023-04-24T04:42:25;99935.41;;;11.84;100.00
38163;BME280;23977;53.078;18.248;2023-04-24T04:44:57;100016.41;;;12.42;100.00
38163;BME280;23977;53.078;18.248;2023-04-24T04:47:31;100169.75;;;13.40;100.00
38163;BME280;23977;53.078;18.248;2023-04-24T04:50:05;99973.91;;;12.18;100.00
38163;BME280;23977;53.078;18.248;2023-04-24T04:52:35;100155.19;;;13.43;100.00
38163;BME280;23977;53.078;18.248;2023-04-24T04:55:04;99866.06;;;11.63;100.00
38163;BME280;23977;53.078;18.248;2023-04-24T04:57:34;99814.22;;;11.44;100.00
38163;BME280;23977;53.078;18.248;2023-04-24T05:00:00;100131.84;;;13.93;100.00
38163;BME280;23977;53.078;18.248;2023-04-24T05:02:39;100074.31;;;13.62;100.00
38163;BME280;23977;53.078;18.248;2023-04-24T05:05:07;100013.69;;;13.35;100.00
38163;BME280;23977;53.078;18.248;2023-04-24T05:07:35;99966.50;;;13.20;100.00
38163;BME280;23977;53.078;18.248;2023-04-24T05:10:05;100140.13;;;14.47;100.00
38163;BME280;23977;53.078;18.248;2023-04-24T05:12:32;100159.84;;;14.80;100.00
38163;BME280;23977;53.078;18.248;2023-04-24T05:15:00;99907.06;;;13.53;100.00
38163;BME280;23977;53.078;18.248;2023-04-24T05:17:30;100167.50;;;15.90;100.00
38163;BME280;23977;53.078;18.248;2023-04-24T05:20:24;99881.69;;;14.24;100.00
38163;BME280;23977;53.078;18.248;2023-04-24T05:22:50;100060.06;;;15.18;100.00
38163;BME280;23977;53.078;18.248;2023-04-24T05:25:22;99742.88;;;12.94;100.00
38163;BME280;23977;53.078;18.248;2023-04-24T05:27:54;99769.94;;;12.84;100.00
38163;BME280;23977;53.078;18.248;2023-04-24T05:30:23;100155.34;;;15.28;100.00
38163;BME280;23977;53.078;18.248;2023-04-24T05:32:53;99810.25;;;12.96;100.00
38163;BME280;23977;53.078;18.248;2023-04-24T05:35:21;100007.72;;;14.42;100.00
38163;BME280;23977;53.078;18.248;2023-04-24T05:37:54;99823.50;;;13.31;100.00
38163;BME280;23977;53.078;18.248;2023-04-24T05:40:29;99767.25;;;12.84;100.00
38163;BME280;23977;53.078;18.248;2023-04-24T05:43:00;100034.94;;;14.66;100.00
38163;BME280;23977;53.078;18.248;2023-04-24T05:45:29;99915.38;;;13.85;100.00
38163;BME280;23977;53.078;18.248;2023-04-24T05:48:03;100160.09;;;15.39;100.00
38163;BME280;23977;53.078;18.248;2023-04-24T05:50:33;100184.03;;;15.34;100.00
38163;BME280;23977;53.078;18.248;2023-04-24T05:52:59;99821.09;;;13.43;100.00
38163;BME280;23977;53.078;18.248;2023-04-24T05:55:27;100134.91;;;15.60;100.00
38163;BME280;23977;53.078;18.248;2023-04-24T05:57:59;100022.53;;;15.25;100.00
38163;BME280;23977;53.078;18.248;2023-04-24T06:00:26;99816.41;;;14.38;100.00
38163;BME280;23977;53.078;18.248;2023-04-24T06:02:54;99722.09;;;14.50;99.34
38163;BME280;23977;53.078;18.248;2023-04-24T06:05:21;99953.72;;;16.16;97.85
38163;BME280;23977;53.078;18.248;2023-04-24T06:07:51;99817.91;;;15.83;96.20
38163;BME280;23977;53.078;18.248;2023-04-24T06:10:20;99865.56;;;16.82;92.40
38163;BME280;23977;53.078;18.248;2023-04-24T06:12:47;99881.38;;;17.46;88.08
38163;BME280;23977;53.078;18.248;2023-04-24T06:15:24;99938.28;;;18.22;83.98
38163;BME280;23977;53.078;18.248;2023-04-24T06:18:01;100173.09;;;19.87;81.00
38163;BME280;23977;53.078;18.248;2023-04-24T06:20:28;99920.00;;;18.00;79.39
38163;BME280;23977;53.078;18.248;2023-04-24T06:22:58;99931.81;;;17.81;84.48
38163;BME280;23977;53.078;18.248;2023-04-24T06:25:36;99890.53;;;17.08;87.87
38163;BME280;23977;53.078;18.248;2023-04-24T06:28:10;100151.31;;;18.51;89.80
38163;BME280;23977;53.078;18.248;2023-04-24T06:30:45;100134.97;;;18.34;89.17
38163;BME280;23977;53.078;18.248;2023-04-24T06:33:14;100141.63;;;18.31;89.37
38163;BME280;23977;53.078;18.248;2023-04-24T06:35:46;100133.94;;;18.16;89.85
38163;BME280;23977;53.078;18.248;2023-04-24T06:38:13;99877.63;;;16.73;87.34
38163;BME280;23977;53.078;18.248;2023-04-24T06:40:39;100133.94;;;18.46;86.32
38163;BME280;23977;53.078;18.248;2023-04-24T06:43:06;99902.16;;;17.01;86.06
38163;BME280;23977;53.078;18.248;2023-04-24T06:45:32;99974.00;;;17.50;85.93
38163;BME280;23977;53.078;18.248;2023-04-24T06:48:01;99903.97;;;17.26;88.47
38163;BME280;23977;53.078;18.248;2023-04-24T06:50:28;100134.28;;;18.87;86.59
38163;BME280;23977;53.078;18.248;2023-04-24T06:52:55;100053.94;;;18.17;83.97
38163;BME280;23977;53.078;18.248;2023-04-24T06:55:22;100026.25;;;17.79;82.53
38163;BME280;23977;53.078;18.248;2023-04-24T06:57:48;100126.28;;;18.31;85.96
38163;BME280;23977;53.078;18.248;2023-04-24T07:00:15;99835.22;;;16.56;85.60
38163;BME280;23977;53.078;18.248;2023-04-24T07:02:42;100125.81;;;18.65;83.65
38163;BME280;23977;53.078;18.248;2023-04-24T07:05:10;99946.47;;;17.36;84.52
38163;BME280;23977;53.078;18.248;2023-04-24T07:07:39;100119.72;;;18.88;81.03
38163;BME280;23977;53.078;18.248;2023-04-24T07:10:06;99991.63;;;17.83;79.56
38163;BME280;23977;53.078;18.248;2023-04-24T07:12:34;99887.84;;;16.89;82.50
38163;BME280;23977;53.078;18.248;2023-04-24T07:15:01;99770.56;;;15.96;82.75
38163;BME280;23977;53.078;18.248;2023-04-24T07:17:28;99699.94;;;15.45;83.96
38163;BME280;23977;53.078;18.248;2023-04-24T07:19:55;99839.72;;;16.44;83.08
38163;BME280;23977;53.078;18.248;2023-04-24T07:22:23;99929.34;;;17.12;84.38
38163;BME280;23977;53.078;18.248;2023-04-24T07:24:49;99804.81;;;16.81;79.50
38163;BME280;23977;53.078;18.248;2023-04-24T07:27:16;99828.41;;;16.97;81.62
38163;BME280;23977;53.078;18.248;2023-04-24T07:29:45;99855.19;;;17.23;78.01
38163;BME280;23977;53.078;18.248;2023-04-24T07:32:12;99855.34;;;17.09;80.68
38163;BME280;23977;53.078;18.248;2023-04-24T07:34:42;99853.59;;;16.78;82.03
38163;BME280;23977;53.078;18.248;2023-04-24T07:37:08;99827.53;;;16.41;82.11
38163;BME280;23977;53.078;18.248;2023-04-24T07:39:37;99754.53;;;15.89;85.74
38163;BME280;23977;53.078;18.248;2023-04-24T07:42:04;99872.78;;;16.63;86.12
38163;BME280;23977;53.078;18.248;2023-04-24T07:44:33;99752.91;;;15.81;85.90
38163;BME280;23977;53.078;18.248;2023-04-24T07:47:02;99828.16;;;16.18;86.45
38163;BME280;23977;53.078;18.248;2023-04-24T07:49:30;100122.91;;;17.81;87.88
38163;BME280;23977;53.078;18.248;2023-04-24T07:51:57;99829.59;;;15.96;88.47
38163;BME280;23977;53.078;18.248;2023-04-24T07:54:29;100108.97;;;18.09;87.86
38163;BME280;23977;53.078;18.248;2023-04-24T07:56:57;100111.28;;;18.05;85.88
38163;BME280;23977;53.078;18.248;2023-04-24T07:59:26;99827.16;;;15.87;88.15
38163;BME280;23977;53.078;18.248;2023-04-24T08:01:52;99781.72;;;15.61;87.30
38163;BME280;23977;53.078;18.248;2023-04-24T08:04:21;99954.56;;;16.67;86.34
38163;BME280;23977;53.078;18.248;2023-04-24T08:06:50;100107.44;;;17.76;85.75
38163;BME280;23977;53.078;18.248;2023-04-24T08:09:17;99882.72;;;16.12;88.32
38163;BME280;23977;53.078;18.248;2023-04-24T08:11:43;99742.47;;;15.41;86.88
38163;BME280;23977;53.078;18.248;2023-04-24T08:14:10;99818.78;;;16.27;84.97
38163;BME280;23977;53.078;18.248;2023-04-24T08:16:43;100108.75;;;18.41;80.59
38163;BME280;23977;53.078;18.248;2023-04-24T08:19:13;99936.63;;;17.60;80.20
38163;BME280;23977;53.078;18.248;2023-04-24T08:21:39;99825.94;;;17.45;77.22
38163;BME280;23977;53.078;18.248;2023-04-24T08:24:09;100107.94;;;19.25;77.30
38163;BME280;23977;53.078;18.248;2023-04-24T08:26:35;99773.16;;;17.01;76.48
38163;BME280;23977;53.078;18.248;2023-04-24T08:29:01;100122.44;;;19.00;77.93
38163;BME280;23977;53.078;18.248;2023-04-24T08:31:27;99995.94;;;18.33;78.82
38163;BME280;23977;53.078;18.248;2023-04-24T08:33:54;99930.94;;;17.87;76.09
38163;BME280;23977;53.078;18.248;2023-04-24T08:36:23;100107.94;;;19.13;74.43
38163;BME280;23977;53.078;18.248;2023-04-24T08:38:50;99979.00;;;18.56;72.89
38163;BME280;23977;53.078;18.248;2023-04-24T08:41:17;100075.78;;;19.35;72.83
38163;BME280;23977;53.078;18.248;2023-04-24T08:43:50;99937.25;;;18.89;72.08
38163;BME280;23977;53.078;18.248;2023-04-24T08:46:19;100018.63;;;19.62;72.98
38163;BME280;23977;53.078;18.248;2023-04-24T08:48:48;99796.16;;;18.47;67.30
38163;BME280;23977;53.078;18.248;2023-04-24T08:51:16;100108.88;;;20.70;67.13
38163;BME280;23977;53.078;18.248;2023-04-24T08:53:46;99901.06;;;19.13;67.41
38163;BME280;23977;53.078;18.248;2023-04-24T08:56:24;99975.59;;;19.43;68.54
38163;BME280;23977;53.078;18.248;2023-04-24T08:59:00;99820.06;;;18.44;67.89
38163;BME280;23977;53.078;18.248;2023-04-24T09:01:29;99780.72;;;18.07;68.93
38163;BME280;23977;53.078;18.248;2023-04-24T09:04:08;99783.94;;;17.86;68.55
38163;BME280;23977;53.078;18.248;2023-04-24T09:06:35;100110.03;;;19.70;70.51
38163;BME280;23977;53.078;18.248;2023-04-24T09:09:02;100141.41;;;19.47;72.13
38163;BME280;23977;53.078;18.248;2023-04-24T09:11:30;99903.44;;;17.66;73.75
38163;BME280;23977;53.078;18.248;2023-04-24T09:13:58;99686.66;;;16.25;73.53
38163;BME280;23977;53.078;18.248;2023-04-24T09:16:25;99757.69;;;16.78;76.61
38163;BME280;23977;53.078;18.248;2023-04-24T09:18:51;99933.00;;;17.85;77.76
38163;BME280;23977;53.078;18.248;2023-04-24T09:21:21;99923.66;;;17.57;78.56
38163;BME280;23977;53.078;18.248;2023-04-24T09:24:07;99970.56;;;17.61;79.89
38163;BME280;23977;53.078;18.248;2023-04-24T09:26:37;99934.41;;;17.38;80.20
38163;BME280;23977;53.078;18.248;2023-04-24T09:29:16;100111.69;;;18.39;78.00
38163;BME280;23977;53.078;18.248;2023-04-24T09:31:43;99773.56;;;16.06;77.46
38163;BME280;23977;53.078;18.248;2023-04-24T09:34:10;99798.78;;;16.23;74.47
38163;BME280;23977;53.078;18.248;2023-04-24T09:36:38;99769.47;;;16.22;75.35
38163;BME280;23977;53.078;18.248;2023-04-24T09:39:08;99754.50;;;16.70;74.03
38163;BME280;23977;53.078;18.248;2023-04-24T09:41:50;100070.16;;;19.01;70.05
38163;BME280;23977;53.078;18.248;2023-04-24T09:44:18;99746.66;;;17.35;68.10
38163;BME280;23977;53.078;18.248;2023-04-24T09:46:57;99844.66;;;18.36;68.05
38163;BME280;23977;53.078;18.248;2023-04-24T09:49:29;100112.47;;;20.19;66.50
38163;BME280;23977;53.078;18.248;2023-04-24T09:52:10;99802.25;;;18.31;64.95
38163;BME280;23977;53.078;18.248;2023-04-24T09:54:40;99987.25;;;19.20;64.75
38163;BME280;23977;53.078;18.248;2023-04-24T09:57:10;99784.28;;;17.78;65.08
38163;BME280;23977;53.078;18.248;2023-04-24T09:59:45;100087.06;;;19.79;65.74
38163;BME280;23977;53.078;18.248;2023-04-24T10:02:20;100080.31;;;20.34;66.27
38163;BME280;23977;53.078;18.248;2023-04-24T10:04:57;100057.34;;;20.94;62.54
38163;BME280;23977;53.078;18.248;2023-04-24T10:07:27;100064.97;;;21.70;58.30
38163;BME280;23977;53.078;18.248;2023-04-24T10:09:54;100057.09;;;21.91;59.01
38163;BME280;23977;53.078;18.248;2023-04-24T10:12:21;100055.97;;;21.87;57.20
38163;BME280;23977;53.078;18.248;2023-04-24T10:14:48;100027.28;;;21.30;55.57
38163;BME280;23977;53.078;18.248;2023-04-24T10:17:14;100057.13;;;21.35;57.52
38163;BME280;23977;53.078;18.248;2023-04-24T10:19:42;100035.63;;;20.89;59.72
38163;BME280;23977;53.078;18.248;2023-04-24T10:22:08;100025.63;;;20.73;59.86
38163;BME280;23977;53.078;18.248;2023-04-24T10:24:37;100032.19;;;20.94;58.84
38163;BME280;23977;53.078;18.248;2023-04-24T10:27:04;100039.47;;;21.10;57.35
38163;BME280;23977;53.078;18.248;2023-04-24T10:29:31;100048.56;;;21.04;59.12
38163;BME280;23977;53.078;18.248;2023-04-24T10:31:57;100052.97;;;21.27;59.52
38163;BME280;23977;53.078;18.248;2023-04-24T10:34:23;100045.94;;;21.65;58.81
38163;BME280;23977;53.078;18.248;2023-04-24T10:37:04;100058.91;;;21.85;56.21
38163;BME280;23977;53.078;18.248;2023-04-24T10:39:30;100073.91;;;22.15;55.45
38163;BME280;23977;53.078;18.248;2023-04-24T10:41:58;100028.28;;;22.07;55.01
38163;BME280;23977;53.078;18.248;2023-04-24T10:44:36;99861.22;;;21.63;52.77
38163;BME280;23977;53.078;18.248;2023-04-24T10:47:05;99964.63;;;22.69;50.11
38163;BME280;23977;53.078;18.248;2023-04-24T10:49:31;100076.13;;;23.85;49.56
38163;BME280;23977;53.078;18.248;2023-04-24T10:52:01;100054.41;;;23.90;51.33
38163;BME280;23977;53.078;18.248;2023-04-24T10:59:49;100061.72;;;23.37;46.95
38163;BME280;23977;53.078;18.248;2023-04-24T11:02:15;100050.16;;;22.82;49.27
38163;BME280;23977;53.078;18.248;2023-04-24T11:04:41;100063.78;;;23.24;48.84
38163;BME280;23977;53.078;18.248;2023-04-24T11:07:11;100069.22;;;23.24;49.15
38163;BME280;23977;53.078;18.248;2023-04-24T11:09:37;100073.47;;;23.53;47.59
38163;BME280;23977;53.078;18.248;2023-04-24T11:12:07;100071.81;;;23.46;48.84
38163;BME280;23977;53.078;18.248;2023-04-24T11:17:37;100075.75;;;23.23;48.96
38163;BME280;23977;53.078;18.248;2023-04-24T11:20:07;100079.66;;;23.91;48.26
38163;BME280;23977;53.078;18.248;2023-04-24T11:22:38;100057.47;;;23.56;45.88
38163;BME280;23977;53.078;18.248;2023-04-24T11:25:10;100065.19;;;22.95;48.42
38163;BME280;23977;53.078;18.248;2023-04-24T11:27:42;100053.38;;;22.46;48.99
38163;BME280;23977;53.078;18.248;2023-04-24T11:30:10;100066.63;;;22.70;50.21
38163;BME280;23977;53.078;18.248;2023-04-24T11:32:40;100030.97;;;22.88;49.24
38163;BME280;23977;53.078;18.248;2023-04-24T11:35:19;100075.03;;;23.38;48.19
38163;BME280;23977;53.078;18.248;2023-04-24T11:37:50;100083.63;;;22.92;49.46
38163;BME280;23977;53.078;18.248;2023-04-24T11:40:18;100073.91;;;22.97;50.57
38163;BME280;23977;53.078;18.248;2023-04-24T11:42:54;100073.25;;;23.17;48.90
38163;BME280;23977;53.078;18.248;2023-04-24T11:45:24;100078.69;;;22.89;49.60
38163;BME280;23977;53.078;18.248;2023-04-24T11:47:50;100077.19;;;23.04;49.75
38163;BME280;23977;53.078;18.248;2023-04-24T11:50:22;100076.56;;;22.91;49.78
38163;BME280;23977;53.078;18.248;2023-04-24T11:52:49;100078.28;;;23.40;49.10
38163;BME280;23977;53.078;18.248;2023-04-24T11:57:54;100065.59;;;23.56;49.96
38163;BME280;23977;53.078;18.248;2023-04-24T12:00:27;100074.69;;;23.30;51.87
38163;BME280;23977;53.078;18.248;2023-04-24T12:03:07;100055.41;;;22.94;51.30
38163;BME280;23977;53.078;18.248;2023-04-24T12:05:33;100063.16;;;23.07;52.30
38163;BME280;23977;53.078;18.248;2023-04-24T12:08:00;100049.09;;;23.15;52.67
38163;BME280;23977;53.078;18.248;2023-04-24T12:10:28;100055.63;;;23.19;52.89
38163;BME280;23977;53.078;18.248;2023-04-24T12:12:55;100030.63;;;23.17;52.51
38163;BME280;23977;53.078;18.248;2023-04-24T12:15:21;100050.78;;;23.26;49.98
38163;BME280;23977;53.078;18.248;2023-04-24T12:17:48;100051.88;;;22.61;50.12
38163;BME280;23977;53.078;18.248;2023-04-24T12:20:16;100025.06;;;22.32;52.67
38163;BME280;23977;53.078;18.248;2023-04-24T12:22:52;100040.16;;;22.87;52.80
38163;BME280;23977;53.078;18.248;2023-04-24T12:25:23;100047.28;;;22.94;50.41
